createdAt,value
2023-02-19T00:01:33.508Z,5.10
2023-02-19T00:04:02.952Z,5.10
2023-02-19T00:06:33.352Z,5.10
2023-02-19T00:09:01.469Z,5.13
2023-02-19T00:11:31.561Z,5.11
2023-02-19T00:14:03.448Z,5.17
2023-02-19T00:16:32.674Z,5.12
2023-02-19T00:19:01.989Z,5.14
2023-02-19T00:21:30.182Z,5.12
2023-02-19T00:23:59.529Z,5.18
2023-02-19T00:26:27.481Z,5.14
2023-02-19T00:28:58.506Z,5.17
2023-02-19T00:31:30.866Z,5.13
2023-02-19T00:34:02.509Z,5.15
2023-02-19T00:36:30.679Z,5.16
2023-02-19T00:38:58.416Z,5.18
2023-02-19T00:41:26.403Z,5.11
2023-02-19T00:43:55.843Z,5.08
2023-02-19T00:46:26.072Z,5.05
2023-02-19T00:48:56.152Z,5.11
2023-02-19T00:51:26.313Z,5.03
2023-02-19T00:53:54.070Z,4.99
2023-02-19T00:56:22.094Z,5.00
2023-02-19T00:58:50.646Z,5.06
2023-02-19T01:01:19.108Z,5.00
2023-02-19T01:03:47.851Z,5.03
2023-02-19T01:06:19.623Z,5.03
2023-02-19T01:08:47.810Z,4.99
2023-02-19T01:11:16.523Z,4.99
2023-02-19T01:13:44.633Z,4.99
2023-02-19T01:16:14.924Z,4.98
2023-02-19T01:18:43.050Z,4.99
2023-02-19T01:21:13.745Z,4.99
2023-02-19T01:23:44.034Z,5.01
2023-02-19T01:26:15.887Z,5.03
2023-02-19T01:28:43.641Z,5.09
2023-02-19T01:31:15.091Z,5.10
2023-02-19T01:33:46.766Z,5.17
2023-02-19T01:36:14.781Z,5.14
2023-02-19T01:38:44.293Z,5.13
2023-02-19T01:41:15.626Z,5.11
2023-02-19T01:44:01.897Z,5.08
2023-02-19T01:46:31.094Z,5.00
2023-02-19T01:49:02.884Z,4.99
2023-02-19T01:51:33.355Z,5.00
2023-02-19T01:54:05.266Z,5.01
2023-02-19T01:56:34.755Z,5.04
2023-02-19T01:59:03.209Z,5.05
2023-02-19T02:01:30.897Z,5.06
2023-02-19T02:03:58.857Z,4.95
2023-02-19T02:06:30.511Z,4.96
2023-02-19T02:09:17.511Z,4.95
2023-02-19T02:11:50.179Z,4.93
2023-02-19T02:14:19.497Z,4.96
2023-02-19T02:16:57.963Z,4.94
2023-02-19T02:19:41.177Z,4.90
2023-02-19T02:22:15.815Z,4.83
2023-02-19T02:25:06.318Z,4.79
2023-02-19T02:27:52.266Z,4.81
2023-02-19T02:30:38.427Z,4.79
2023-02-19T02:33:16.657Z,4.79
2023-02-19T02:35:48.803Z,4.80
2023-02-19T02:38:19.372Z,4.77
2023-02-19T02:40:48.086Z,4.76
2023-02-19T02:43:15.809Z,4.76
2023-02-19T02:45:44.818Z,4.78
2023-02-19T02:48:36.755Z,4.63
2023-02-19T02:51:16.766Z,4.61
2023-02-19T02:54:07.559Z,4.62
2023-02-19T02:56:36.693Z,4.57
2023-02-19T02:59:08.156Z,4.63
2023-02-19T03:01:59.332Z,4.60
2023-02-19T03:04:59.553Z,4.62
2023-02-19T03:07:29.738Z,4.62
2023-02-19T03:10:00.544Z,4.65
2023-02-19T03:12:49.552Z,4.64
2023-02-19T03:15:35.718Z,4.48
2023-02-19T03:18:26.928Z,4.55
2023-02-19T03:20:59.032Z,4.48
2023-02-19T03:23:44.934Z,4.46
2023-02-19T03:26:13.690Z,4.42
2023-02-19T03:29:01.769Z,4.33
2023-02-19T03:31:33.168Z,4.29
2023-02-19T03:34:06.337Z,4.28
2023-02-19T03:36:38.776Z,4.30
2023-02-19T03:39:08.007Z,4.33
2023-02-19T03:41:42.761Z,4.29
2023-02-19T03:44:17.253Z,4.29
2023-02-19T03:46:52.845Z,4.14
2023-02-19T03:49:27.588Z,4.22
2023-02-19T03:52:02.716Z,4.14
2023-02-19T03:54:36.718Z,4.13
2023-02-19T03:57:09.334Z,4.02
2023-02-19T03:59:44.283Z,3.86
2023-02-19T04:02:16.657Z,3.84
2023-02-19T04:04:49.064Z,3.75
2023-02-19T04:07:16.903Z,3.80
2023-02-19T04:09:47.110Z,3.83
2023-02-19T04:12:16.659Z,3.72
2023-02-19T04:14:48.368Z,3.68
2023-02-19T04:17:23.171Z,3.49
2023-02-19T04:19:55.480Z,3.53
2023-02-19T04:22:23.646Z,3.64
2023-02-19T04:24:53.495Z,3.68
2023-02-19T04:27:21.274Z,3.63
2023-02-19T04:29:48.987Z,3.67
2023-02-19T04:32:16.731Z,3.62
2023-02-19T04:34:44.454Z,3.64
2023-02-19T04:37:13.641Z,3.71
2023-02-19T04:39:41.281Z,3.63
2023-02-19T04:42:08.966Z,3.54
2023-02-19T04:44:36.611Z,3.34
2023-02-19T04:47:04.381Z,3.41
2023-02-19T04:49:32.100Z,3.49
2023-02-19T04:51:59.796Z,3.50
2023-02-19T04:54:28.954Z,3.53
2023-02-19T04:56:57.479Z,3.42
2023-02-19T04:59:25.225Z,3.51
2023-02-19T05:01:52.958Z,3.38
2023-02-19T05:04:20.841Z,3.36
2023-02-19T05:06:48.474Z,3.38
2023-02-19T05:09:16.152Z,3.31
2023-02-19T05:11:45.150Z,3.32
2023-02-19T05:14:12.825Z,3.30
2023-02-19T05:16:40.505Z,3.12
2023-02-19T05:19:08.149Z,3.17
2023-02-19T05:21:35.846Z,3.11
2023-02-19T05:24:03.505Z,3.16
2023-02-19T05:26:31.197Z,3.13
2023-02-19T05:29:00.551Z,3.12
2023-02-19T05:31:28.325Z,3.11
2023-02-19T05:33:56.252Z,3.13
2023-02-19T05:36:24.618Z,3.16
2023-02-19T05:38:54.088Z,3.19
2023-02-19T05:41:24.301Z,3.21
2023-02-19T05:43:52.085Z,3.21
2023-02-19T05:46:23.971Z,3.12
2023-02-19T05:48:53.566Z,3.16
2023-02-19T05:51:22.933Z,3.20
2023-02-19T05:53:51.738Z,3.19
2023-02-19T05:56:27.725Z,3.18
2023-02-19T05:58:56.363Z,3.15
2023-02-19T06:01:26.860Z,3.22
2023-02-19T06:03:57.241Z,3.19
2023-02-19T06:06:25.478Z,3.17
2023-02-19T06:08:53.693Z,3.19
2023-02-19T06:11:22.240Z,3.15
2023-02-19T06:13:50.471Z,3.02
2023-02-19T06:16:19.014Z,2.95
2023-02-19T06:18:48.077Z,2.93
2023-02-19T06:21:16.940Z,2.92
2023-02-19T06:23:45.508Z,2.95
2023-02-19T06:26:15.218Z,2.90
2023-02-19T06:28:43.385Z,2.84
2023-02-19T06:31:12.631Z,2.86
2023-02-19T06:33:41.478Z,2.82
2023-02-19T06:36:13.462Z,2.77
2023-02-19T06:38:41.254Z,2.73
2023-02-19T06:41:10.103Z,2.79
2023-02-19T06:43:38.164Z,2.78
2023-02-19T06:46:07.255Z,2.81
2023-02-19T06:48:35.983Z,2.80
2023-02-19T06:51:03.746Z,2.79
2023-02-19T06:53:32.874Z,2.83
2023-02-19T06:56:02.095Z,2.92
2023-02-19T06:58:30.258Z,2.96
2023-02-19T07:00:57.931Z,2.93
2023-02-19T07:03:26.171Z,2.96
2023-02-19T07:05:53.874Z,2.92
2023-02-19T07:08:21.868Z,2.81
2023-02-19T07:10:57.288Z,2.77
2023-02-19T07:13:26.621Z,2.90
2023-02-19T07:15:59.979Z,2.92
2023-02-19T07:18:27.850Z,2.82
2023-02-19T07:20:55.484Z,2.86
2023-02-19T07:23:23.157Z,2.78
2023-02-19T07:25:50.825Z,2.80
2023-02-19T07:28:19.806Z,2.79
2023-02-19T07:30:47.489Z,2.83
2023-02-19T07:33:15.141Z,2.86
2023-02-19T07:35:46.843Z,2.94
2023-02-19T07:38:16.994Z,2.96
2023-02-19T07:40:52.095Z,3.02
2023-02-19T07:43:21.350Z,3.01
2023-02-19T07:45:49.284Z,3.05
2023-02-19T07:48:17.386Z,3.03
2023-02-19T07:50:52.309Z,3.07
2023-02-19T07:53:20.263Z,3.15
2023-02-19T07:55:47.980Z,3.12
2023-02-19T07:58:15.649Z,3.15
2023-02-19T08:00:44.913Z,3.15
2023-02-19T08:03:13.059Z,3.18
2023-02-19T08:05:42.677Z,3.23
2023-02-19T08:08:12.249Z,3.22
2023-02-19T08:10:57.794Z,3.30
2023-02-19T08:13:26.697Z,3.36
2023-02-19T08:16:10.924Z,3.39
2023-02-19T08:18:44.498Z,3.38
2023-02-19T08:21:12.430Z,3.48
2023-02-19T08:23:40.685Z,3.44
2023-02-19T08:26:09.772Z,3.48
2023-02-19T08:28:37.575Z,3.40
2023-02-19T08:31:08.583Z,3.53
2023-02-19T08:33:36.804Z,3.58
2023-02-19T08:36:06.341Z,3.51
2023-02-19T08:38:35.890Z,3.49
2023-02-19T08:41:06.950Z,3.56
2023-02-19T08:43:35.114Z,3.68
2023-02-19T08:46:03.120Z,3.67
2023-02-19T08:48:32.283Z,3.86
2023-02-19T08:51:03.836Z,3.93
2023-02-19T08:53:32.764Z,4.01
2023-02-19T08:56:00.479Z,4.05
2023-02-19T08:58:28.145Z,4.18
2023-02-19T09:00:55.838Z,4.18
2023-02-19T09:03:23.544Z,4.28
2023-02-19T09:05:53.247Z,4.28
2023-02-19T09:08:20.867Z,4.35
2023-02-19T09:10:58.745Z,4.34
2023-02-19T09:13:26.456Z,4.42
2023-02-19T09:15:54.106Z,4.30
2023-02-19T09:18:21.812Z,4.26
2023-02-19T09:20:49.405Z,4.32
2023-02-19T09:23:18.433Z,4.44
2023-02-19T09:25:46.177Z,4.47
2023-02-19T09:28:13.832Z,4.60
2023-02-19T09:30:41.588Z,4.73
2023-02-19T09:33:09.293Z,4.64
2023-02-19T09:35:42.165Z,4.57
2023-02-19T09:38:11.022Z,4.64
2023-02-19T09:40:40.695Z,4.74
2023-02-19T09:43:10.833Z,4.67
2023-02-19T09:45:39.050Z,4.71
2023-02-19T09:48:07.629Z,4.54
2023-02-19T09:50:39.146Z,4.63
2023-02-19T09:53:15.545Z,4.66
2023-02-19T09:55:45.882Z,4.80
2023-02-19T09:58:24.649Z,4.87
2023-02-19T10:00:53.869Z,4.84
2023-02-19T10:03:30.570Z,4.90
2023-02-19T10:06:00.062Z,4.84
2023-02-19T10:08:27.693Z,4.96
2023-02-19T10:10:56.860Z,5.11
2023-02-19T10:13:30.617Z,4.95
2023-02-19T10:15:59.811Z,5.11
2023-02-19T10:18:29.296Z,5.25
2023-02-19T10:20:58.414Z,5.27
2023-02-19T10:23:27.007Z,5.38
2023-02-19T10:25:57.652Z,5.50
2023-02-19T10:28:29.159Z,5.61
2023-02-19T10:30:59.463Z,5.51
2023-02-19T10:33:27.578Z,5.51
2023-02-19T10:35:57.867Z,5.38
2023-02-19T10:38:29.260Z,5.30
2023-02-19T10:41:05.188Z,5.42
2023-02-19T10:43:36.914Z,5.48
2023-02-19T10:46:08.251Z,5.58
2023-02-19T10:48:38.815Z,5.59
2023-02-19T10:51:08.028Z,5.54
2023-02-19T10:53:47.200Z,5.50
2023-02-19T10:56:23.681Z,5.50
2023-02-19T10:58:52.045Z,5.48
2023-02-19T11:01:21.717Z,5.41
2023-02-19T11:03:50.905Z,5.49
2023-02-19T11:06:21.267Z,5.38
2023-02-19T11:08:53.510Z,5.38
2023-02-19T11:11:35.550Z,5.37
2023-02-19T11:14:06.558Z,5.51
2023-02-19T11:16:44.311Z,5.69
2023-02-19T11:19:26.131Z,5.66
2023-02-19T11:21:54.572Z,5.58
2023-02-19T11:24:28.163Z,5.62
2023-02-19T11:26:58.181Z,5.70
2023-02-19T11:29:28.601Z,5.84
2023-02-19T11:31:57.365Z,5.81
2023-02-19T11:34:30.536Z,5.95
2023-02-19T11:37:13.332Z,6.10
2023-02-19T11:39:43.284Z,6.08
2023-02-19T11:42:29.518Z,6.23
2023-02-19T11:45:23.483Z,6.43
2023-02-19T11:48:19.180Z,6.54
2023-02-19T11:50:56.182Z,6.57
2023-02-19T11:53:27.873Z,6.59
2023-02-19T11:56:09.328Z,6.71
2023-02-19T11:58:57.269Z,6.82
2023-02-19T12:01:45.126Z,6.92
2023-02-19T12:04:44.641Z,7.02
2023-02-19T12:07:23.375Z,7.08
2023-02-19T12:10:02.871Z,7.10
2023-02-19T12:12:45.231Z,7.23
2023-02-19T12:15:40.786Z,7.18
2023-02-19T12:18:34.469Z,7.22
2023-02-19T12:21:15.794Z,7.32
2023-02-19T12:24:06.459Z,7.16
2023-02-19T12:26:40.276Z,7.23
2023-02-19T12:29:32.371Z,7.12
2023-02-19T12:32:17.673Z,7.03
2023-02-19T12:35:21.637Z,7.12
2023-02-19T12:37:56.559Z,6.92
2023-02-19T12:40:38.912Z,7.03
2023-02-19T12:43:14.623Z,7.14
2023-02-19T12:45:46.342Z,7.12
2023-02-19T12:48:24.953Z,6.88
2023-02-19T12:50:57.914Z,6.83
2023-02-19T12:53:43.746Z,6.71
2023-02-19T12:56:18.057Z,6.88
2023-02-19T12:58:49.498Z,6.87
2023-02-19T13:01:23.242Z,6.67
2023-02-19T13:03:59.639Z,6.51
2023-02-19T13:06:37.178Z,6.48
2023-02-19T13:09:12.923Z,6.44
2023-02-19T13:11:45.554Z,6.37
2023-02-19T13:14:22.692Z,6.44
2023-02-19T13:16:58.088Z,6.57
2023-02-19T13:19:27.304Z,6.55
2023-02-19T13:22:22.607Z,6.55
2023-02-19T13:24:52.192Z,6.36
2023-02-19T13:27:42.908Z,6.31
2023-02-19T13:30:30.983Z,6.23
2023-02-19T13:33:14.850Z,6.12
2023-02-19T13:36:05.907Z,6.14
2023-02-19T13:38:35.143Z,6.10
2023-02-19T13:41:03.137Z,6.21
2023-02-19T13:43:34.767Z,6.12
2023-02-19T13:46:06.398Z,6.09
2023-02-19T13:48:35.504Z,6.22
2023-02-19T13:51:36.608Z,6.46
2023-02-19T13:54:15.519Z,6.59
2023-02-19T13:56:43.331Z,6.76
2023-02-19T13:59:25.137Z,6.84
2023-02-19T14:02:16.552Z,7.16
2023-02-19T14:04:56.861Z,7.30
2023-02-19T14:08:03.217Z,7.31
2023-02-19T14:10:54.287Z,7.32
2023-02-19T14:13:59.174Z,7.22
2023-02-19T14:16:54.800Z,7.25
2023-02-19T14:19:58.317Z,7.32
2023-02-19T14:22:49.764Z,7.47
2023-02-19T14:25:52.698Z,7.36
2023-02-19T14:28:29.840Z,7.17
2023-02-19T14:31:00.860Z,7.08
2023-02-19T14:33:31.372Z,7.16
2023-02-19T14:36:05.664Z,7.30
2023-02-19T14:38:37.316Z,7.14
2023-02-19T14:41:06.499Z,7.09
2023-02-19T14:43:37.229Z,7.09
2023-02-19T14:46:09.601Z,7.09
2023-02-19T14:48:40.662Z,6.88
2023-02-19T14:51:13.588Z,6.79
2023-02-19T14:53:45.775Z,6.59
2023-02-19T14:56:22.085Z,6.47
2023-02-19T14:59:10.320Z,6.52
2023-02-19T15:01:38.599Z,6.52
2023-02-19T15:04:07.100Z,6.45
2023-02-19T15:06:36.770Z,6.38
2023-02-19T15:09:08.120Z,6.34
2023-02-19T15:11:36.913Z,6.80
2023-02-19T15:14:07.018Z,7.43
2023-02-19T15:16:37.756Z,7.97
2023-02-19T15:19:09.499Z,8.41
2023-02-19T15:21:41.186Z,8.85
2023-02-19T15:24:08.980Z,8.60
2023-02-19T15:26:38.789Z,8.31
2023-02-19T15:29:12.839Z,8.06
2023-02-19T15:31:47.904Z,7.75
2023-02-19T15:34:18.379Z,7.66
2023-02-19T15:36:46.374Z,7.80
2023-02-19T15:39:21.319Z,7.79
2023-02-19T15:41:55.098Z,7.69
2023-02-19T15:44:31.987Z,7.63
2023-02-19T15:47:08.484Z,7.42
2023-02-19T15:49:44.952Z,7.38
2023-02-19T15:52:20.005Z,7.20
2023-02-19T15:54:53.763Z,7.00
2023-02-19T15:57:25.899Z,6.87
2023-02-19T15:59:57.965Z,6.76
2023-02-19T16:02:27.808Z,6.73
2023-02-19T16:04:55.610Z,6.58
2023-02-19T16:07:26.371Z,6.53
2023-02-19T16:10:20.760Z,6.33
2023-02-19T16:12:59.235Z,6.16
2023-02-19T16:15:28.125Z,6.02
2023-02-19T16:17:58.482Z,5.92
2023-02-19T16:20:30.023Z,5.76
2023-02-19T16:23:00.686Z,5.73
2023-02-19T16:25:33.970Z,5.69
2023-02-19T16:28:11.718Z,5.62
2023-02-19T16:30:39.787Z,5.59
2023-02-19T16:33:23.284Z,5.57
2023-02-19T16:35:52.311Z,5.50
2023-02-19T16:38:21.457Z,5.42
2023-02-19T16:41:12.632Z,5.38
2023-02-19T16:43:42.271Z,5.31
2023-02-19T16:46:12.601Z,5.27
2023-02-19T16:48:41.793Z,5.23
2023-02-19T16:51:10.737Z,5.20
2023-02-19T16:53:39.708Z,5.10
2023-02-19T16:56:10.457Z,5.10
2023-02-19T16:58:39.924Z,5.03
2023-02-19T17:01:08.071Z,5.08
2023-02-19T17:03:35.868Z,5.00
2023-02-19T17:06:05.276Z,4.94
2023-02-19T17:08:35.401Z,4.90
2023-02-19T17:11:05.103Z,4.89
2023-02-19T17:13:33.071Z,4.84
2023-02-19T17:16:01.177Z,4.83
2023-02-19T17:18:29.207Z,4.77
2023-02-19T17:21:02.248Z,4.70
2023-02-19T17:23:31.407Z,4.68
2023-02-19T17:25:59.070Z,4.64
2023-02-19T17:28:26.914Z,4.58
2023-02-19T17:30:55.078Z,4.53
2023-02-19T17:33:22.787Z,4.47
2023-02-19T17:35:50.428Z,4.42
2023-02-19T17:38:18.045Z,4.42
2023-02-19T17:40:47.047Z,4.39
2023-02-19T17:43:14.759Z,4.30
2023-02-19T17:45:42.686Z,4.29
2023-02-19T17:48:13.407Z,4.27
2023-02-19T17:50:41.621Z,4.21
2023-02-19T17:53:09.814Z,4.20
2023-02-19T17:55:37.473Z,4.12
2023-02-19T17:58:06.474Z,4.09
2023-02-19T18:00:35.219Z,4.08
2023-02-19T18:03:03.071Z,4.01
2023-02-19T18:05:31.355Z,4.00
2023-02-19T18:07:59.128Z,3.98
2023-02-19T18:10:26.852Z,3.93
2023-02-19T18:12:54.578Z,3.91
2023-02-19T18:15:26.756Z,3.96
2023-02-19T18:17:55.492Z,3.93
2023-02-19T18:20:25.439Z,3.88
2023-02-19T18:22:53.209Z,3.85
2023-02-19T18:25:22.105Z,3.83
2023-02-19T18:27:50.193Z,3.83
2023-02-19T18:30:19.858Z,3.84
2023-02-19T18:32:49.273Z,3.91
2023-02-19T18:35:18.199Z,3.94
2023-02-19T18:37:45.985Z,4.02
2023-02-19T18:40:14.237Z,3.94
2023-02-19T18:42:41.873Z,3.96
2023-02-19T18:45:09.644Z,3.90
2023-02-19T18:47:37.275Z,3.90
2023-02-19T18:50:08.245Z,3.90
2023-02-19T18:52:35.987Z,3.88
2023-02-19T18:55:03.896Z,3.96
2023-02-19T18:57:31.544Z,4.04
2023-02-19T18:59:59.342Z,3.88
2023-02-19T19:02:29.746Z,3.91
2023-02-19T19:04:59.203Z,3.85
2023-02-19T19:07:28.262Z,3.80
2023-02-19T19:09:56.009Z,3.77
2023-02-19T19:12:23.639Z,3.78
2023-02-19T19:14:51.310Z,3.69
2023-02-19T19:17:18.991Z,3.75
2023-02-19T19:19:46.658Z,3.75
2023-02-19T19:22:15.045Z,3.68
2023-02-19T19:24:44.079Z,3.68
2023-02-19T19:27:11.767Z,3.73
2023-02-19T19:29:39.671Z,3.71
2023-02-19T19:32:08.690Z,3.63
2023-02-19T19:34:36.565Z,3.58
2023-02-19T19:37:04.357Z,3.57
2023-02-19T19:39:32.092Z,3.50
2023-02-19T19:42:01.096Z,3.50
2023-02-19T19:44:28.767Z,3.51
2023-02-19T19:46:56.440Z,3.61
2023-02-19T19:49:24.473Z,3.48
2023-02-19T19:51:52.169Z,3.58
2023-02-19T19:54:20.066Z,3.56
2023-02-19T19:56:50.055Z,3.57
2023-02-19T19:59:19.378Z,3.56
2023-02-19T20:01:52.062Z,3.52
2023-02-19T20:04:21.324Z,3.56
2023-02-19T20:06:49.673Z,3.59
2023-02-19T20:09:17.980Z,3.46
2023-02-19T20:11:46.410Z,3.47
2023-02-19T20:14:14.400Z,3.53
2023-02-19T20:16:44.834Z,3.43
2023-02-19T20:19:12.642Z,3.36
2023-02-19T20:21:40.480Z,3.38
2023-02-19T20:24:08.844Z,3.43
2023-02-19T20:26:36.490Z,3.50
2023-02-19T20:29:05.993Z,3.45
2023-02-19T20:31:33.789Z,3.46
2023-02-19T20:34:03.044Z,3.47
2023-02-19T20:36:32.203Z,3.51
2023-02-19T20:38:59.907Z,3.42
2023-02-19T20:41:27.610Z,3.44
2023-02-19T20:43:55.313Z,3.40
2023-02-19T20:46:23.457Z,3.39
2023-02-19T20:48:52.013Z,3.36
2023-02-19T20:51:21.126Z,3.40
2023-02-19T20:53:49.275Z,3.37
2023-02-19T20:56:16.828Z,3.45
2023-02-19T20:58:44.534Z,3.34
2023-02-19T21:01:12.627Z,3.42
2023-02-19T21:03:40.496Z,3.43
2023-02-19T21:06:08.403Z,3.38
2023-02-19T21:08:37.610Z,3.37
2023-02-19T21:11:05.517Z,3.30
2023-02-19T21:13:33.170Z,3.35
2023-02-19T21:16:00.814Z,3.34
2023-02-19T21:18:28.702Z,3.28
2023-02-19T21:20:56.407Z,3.34
2023-02-19T21:23:24.078Z,3.25
2023-02-19T21:25:54.630Z,3.25
2023-02-19T21:28:22.548Z,3.17
2023-02-19T21:30:50.395Z,3.22
2023-02-19T21:33:18.100Z,3.23
2023-02-19T21:35:46.129Z,3.21
2023-02-19T21:38:13.811Z,3.20
2023-02-19T21:40:42.569Z,3.08
2023-02-19T21:43:12.724Z,3.21
2023-02-19T21:45:40.427Z,3.11
2023-02-19T21:48:09.534Z,3.13
2023-02-19T21:50:37.287Z,3.15
2023-02-19T21:53:05.508Z,3.16
2023-02-19T21:55:33.245Z,3.19
2023-02-19T21:58:00.917Z,3.15
2023-02-19T22:00:30.307Z,3.15
2023-02-19T22:02:58.076Z,3.05
2023-02-19T22:05:26.515Z,3.17
2023-02-19T22:07:54.309Z,3.11
2023-02-19T22:10:22.652Z,3.07
2023-02-19T22:12:50.304Z,3.14
2023-02-19T22:15:18.426Z,3.11
2023-02-19T22:17:47.397Z,3.11
2023-02-19T22:20:17.145Z,3.02
2023-02-19T22:22:44.763Z,3.05
2023-02-19T22:25:12.443Z,3.04
2023-02-19T22:27:40.136Z,3.06
2023-02-19T22:30:08.876Z,3.06
2023-02-19T22:32:36.705Z,3.05
2023-02-19T22:35:06.089Z,2.93
2023-02-19T22:37:33.918Z,2.93
2023-02-19T22:40:01.648Z,2.93
2023-02-19T22:42:29.368Z,2.77
2023-02-19T22:44:57.058Z,2.78
2023-02-19T22:47:24.857Z,2.68
2023-02-19T22:49:52.548Z,2.72
2023-02-19T22:52:21.650Z,2.63
2023-02-19T22:54:49.643Z,2.67
2023-02-19T22:57:17.289Z,2.64
2023-02-19T22:59:44.930Z,2.64
2023-02-19T23:02:12.651Z,2.61
2023-02-19T23:04:40.321Z,2.55
2023-02-19T23:07:08.104Z,2.54
2023-02-19T23:09:37.351Z,2.51
2023-02-19T23:12:06.687Z,2.55
2023-02-19T23:14:34.850Z,2.54
2023-02-19T23:17:02.693Z,2.62
2023-02-19T23:19:30.457Z,2.57
2023-02-19T23:21:58.203Z,2.60
2023-02-19T23:24:26.218Z,2.60
2023-02-19T23:26:55.318Z,2.63
2023-02-19T23:29:25.577Z,2.46
2023-02-19T23:31:53.548Z,2.37
2023-02-19T23:34:21.824Z,2.60
2023-02-19T23:36:51.538Z,2.53
2023-02-19T23:39:21.269Z,2.51
2023-02-19T23:41:50.228Z,2.48
2023-02-19T23:44:20.802Z,2.52
2023-02-19T23:46:50.855Z,2.39
2023-02-19T23:49:19.260Z,2.43
2023-02-19T23:51:46.970Z,2.51
2023-02-19T23:54:14.692Z,2.40
2023-02-19T23:56:42.449Z,2.49
2023-02-19T23:59:10.109Z,2.47
